ADDS METAR Data INFO
IDs: Format: Raw Decoded Include TAF

Data at: 0249 UTC 17 Jan 2018

KMBO 170235Z AUTO 33012G15KT 10SM CLR M08/M13 A3063 RMK AO2
KMBO 170215Z AUTO 33012G16KT 10SM CLR M08/M14 A3063 RMK AO2
KMBO 170155Z AUTO 34009G14KT 10SM CLR M08/M13 A3062 RMK AO2
KMBO 170135Z AUTO 33011G17KT 10SM CLR M07/M13 A3062 RMK AO2
KMBO 170115Z AUTO 34010G16KT 10SM CLR M07/M13 A3062 RMK AO2
KMBO 170055Z AUTO 33009G15KT 10SM CLR M07/M13 A3062 RMK AO2
KMBO 170035Z AUTO 34007KT 10SM CLR M07/M12 A3061 RMK AO2
KMBO 170015Z AUTO 33010G16KT 10SM CLR M07/M12 A3060 RMK AO2
KMBO 162355Z AUTO 33008KT 10SM CLR M07/M12 A3060 RMK AO2
KMBO 162335Z AUTO 34007KT 312V012 10SM CLR M07/M11 A3059 RMK AO2
KMBO 162315Z AUTO 35008G15KT 10SM CLR M06/M11 A3059 RMK AO2
KMBO 162255Z AUTO 33009KT 10SM SCT021 M06/M11 A3059 RMK AO2
KMBO 162235Z AUTO 33011G15KT 10SM SCT021 M06/M11 A3058 RMK AO2
KMBO 162215Z AUTO 33006KT 10SM SCT021 M06/M10 A3058 RMK AO2
KMBO 162155Z AUTO 34005KT 10SM SCT019 M06/M10 A3057 RMK AO2
KMBO 162135Z AUTO 32007KT 10SM SCT018 M06/M10 A3057 RMK AO2
KMBO 162115Z AUTO 34007KT 10SM SCT018 M06/M10 A3057 RMK AO2
KMBO 162055Z AUTO 35009G15KT 10SM -DZ SCT006 SCT010 M07/M10 A3057 RMK AO2
KMBO 162035Z AUTO 34009G16KT 332V032 10SM -RA BKN008 BKN014 M07/M10 A3057 RMK AO2
KMBO 162015Z AUTO 32011G17KT 10SM -RA SCT006 OVC014 M06/M09 A3057 RMK AO2
KMBO 161955Z AUTO 34009G14KT 7SM RA BKN006 BKN010 OVC014 M06/M08 A3057 RMK AO2
KMBO 161935Z AUTO 34010G15KT 7SM +RA BKN006 OVC011 M06/M08 A3057 RMK AO2
KMBO 161915Z AUTO 33011G14KT 4SM +RA BKN006 OVC011 M06/M07 A3058 RMK AO2
KMBO 161855Z AUTO 32010KT 5SM +RA BKN008 OVC014 M05/M07 A3059 RMK AO2
KMBO 161835Z AUTO 34007G16KT 7SM RA SCT008 OVC014 M06/M08 A3060 RMK AO2
KMBO 161815Z AUTO 33008KT 10SM -RA SCT005 SCT009 OVC013 M05/M08 A3060 RMK AO2
KMBO 161755Z AUTO 34008G15KT 7SM RA SCT005 BKN010 OVC013 M06/M08 A3061 RMK AO2
KMBO 161735Z AUTO 33008KT 5SM RA SCT007 OVC013 M05/M07 A3061 RMK AO2
KMBO 161715Z AUTO 34008KT 5SM RA SCT007 OVC013 M05/M07 A3062 RMK AO2
KMBO 161655Z AUTO 33009KT 5SM +RA SCT007 OVC013 M05/M07 A3063 RMK AO2
KMBO 161635Z AUTO 32008G16KT 5SM +RA BKN007 OVC013 M05/M07 A3062 RMK AO2
KMBO 161615Z AUTO 34010G17KT 7SM +RA SCT007 OVC011 M05/M06 A3062 RMK AO2
KMBO 161555Z AUTO 33011G16KT 5SM +RA OVC009 M04/M06 A3062 RMK AO2
KMBO 161535Z AUTO 34007G17KT 312V012 7SM RA OVC009 M05/M06 A3061 RMK AO2
KMBO 161515Z AUTO 34006KT 4SM +RA BKN009 OVC012 M04/M06 A3060 RMK AO2
KMBO 161455Z AUTO 34009G15KT 7SM RA BKN007 OVC013 M03/M06 A3058 RMK AO2
KMBO 161435Z AUTO 34008G14KT 7SM DZ SCT006 OVC011 M03/M05 A3057 RMK AO2
KMBO 161415Z AUTO 34010G18KT 7SM RA OVC009 M03/M05 A3057 RMK AO2
KMBO 161355Z AUTO 34010G15KT 5SM RA BKN007 OVC016 M03/M05 A3056 RMK AO2
KMBO 161335Z AUTO 34010G14KT 10SM OVC016 M02/M05 A3056 RMK AO2
KMBO 161315Z AUTO 33009G18KT 10SM BKN014 M02/M04 A3055 RMK AO2
KMBO 161255Z AUTO 33008G17KT 10SM OVC012 M02/M04 A3053 RMK AO2
KMBO 161235Z AUTO 34009G18KT 10SM OVC012 M01/M03 A3052 RMK AO2
KMBO 161215Z AUTO 32011G16KT 10SM OVC012 M01/M03 A3051 RMK AO2
KMBO 161155Z AUTO 35008G17KT 312V032 10SM OVC012 M01/M03 A3050 RMK AO2
KMBO 161135Z AUTO 34010G18KT 10SM OVC012 M01/M03 A3049 RMK AO2
KMBO 161115Z AUTO 34008G19KT 10SM OVC012 00/M02 A3048 RMK AO2
KMBO 161055Z AUTO 34010KT 10SM OVC012 00/M02 A3046 RMK AO2
KMBO 161035Z AUTO 34007G15KT 10SM OVC012 00/M02 A3046 RMK AO2
KMBO 161015Z AUTO 33013G18KT 10SM OVC012 00/M01 A3046 RMK AO2
KMBO 160955Z AUTO 33010G14KT 10SM BKN014 OVC060 01/00 A3044 RMK AO2
KMBO 160935Z AUTO 33006KT 10SM SCT016 OVC060 02/00 A3044 RMK AO2
KMBO 160915Z AUTO 33011G16KT 10SM OVC060 02/00 A3043 RMK AO2
KMBO 160855Z AUTO 34007KT 10SM OVC060 02/M01 A3041 RMK AO2
KMBO 160835Z AUTO 34003KT 10SM OVC060 02/M01 A3040 RMK AO2
KMBO 160815Z AUTO 35005KT 10SM OVC060 02/M01 A3039 RMK AO2
KMBO 160755Z AUTO 32005KT 10SM OVC060 02/M01 A3041 RMK AO2
KMBO 160735Z AUTO 34007KT 10SM BKN060 02/M02 A3040 RMK AO2
KMBO 160715Z AUTO 34005KT 10SM CLR 02/M02 A3039 RMK AO2
KMBO 160655Z AUTO 34007G14KT 10SM CLR 00/M01 A3037 RMK AO2
KMBO 160635Z AUTO 00000KT 10SM SCT060 00/M01 A3035 RMK AO2
KMBO 160615Z AUTO 00000KT 10SM SCT060 00/M01 A3036 RMK AO2
KMBO 160555Z AUTO 00000KT 10SM CLR 00/M02 A3035 RMK AO2
KMBO 160535Z AUTO 00000KT 10SM CLR 00/M01 A3035 RMK AO2
KMBO 160515Z AUTO 00000KT 10SM CLR 00/M01 A3036 RMK AO2
KMBO 160455Z AUTO 00000KT 10SM CLR 00/M01 A3036 RMK AO2
KMBO 160435Z AUTO 00000KT 10SM CLR 01/M01 A3035 RMK AO2
KMBO 160415Z AUTO 00000KT 10SM CLR 00/M01 A3036 RMK AO2
KMBO 160355Z AUTO 00000KT 10SM CLR 00/M02 A3037 RMK AO2
KMBO 160335Z AUTO 00000KT 10SM CLR 00/M02 A3037 RMK AO2
KMBO 160315Z AUTO 00000KT 10SM CLR 00/M01 A3037 RMK AO2
KMBO 160255Z AUTO 00000KT 10SM CLR 01/M01 A3037 RMK AO2
KMBO 160235Z AUTO 00000KT 10SM CLR 00/M02 A3037 RMK AO2
KMBO 160215Z AUTO 00000KT 10SM CLR 01/M01 A3036 RMK AO2
KMBO 160155Z AUTO 00000KT 10SM CLR 02/M01 A3036 RMK AO2
KMBO 160135Z AUTO 00000KT 10SM CLR 02/M01 A3036 RMK AO2
KMBO 160115Z AUTO 00000KT 10SM CLR 02/M01 A3035 RMK AO2
KMBO 160055Z AUTO 00000KT 10SM CLR 03/00 A3035 RMK AO2
KMBO 160035Z AUTO 00000KT 10SM CLR 04/M02 A3035 RMK AO2
KMBO 160015Z AUTO 00000KT 10SM CLR 05/M02 A3035 RMK AO2 PWINO
KMBO 152355Z AUTO 00000KT 10SM CLR 06/M02 A3035 RMK AO2 PWINO
KMBO 152335Z AUTO 00000KT 10SM CLR 06/M02 A3034 RMK AO2 PWINO
KMBO 152315Z AUTO 00000KT 10SM CLR 07/M01 A3034 RMK AO2 PWINO
KMBO 152255Z AUTO 00000KT 10SM CLR 10/M02 A3034 RMK AO2
KMBO 152235Z AUTO 00000KT 10SM CLR 11/M04 A3034 RMK AO2
KMBO 152215Z AUTO 00000KT 10SM CLR 12/M04 A3034 RMK AO2
KMBO 152155Z AUTO 18003KT 10SM CLR 12/M04 A3033 RMK AO2
KMBO 152135Z AUTO 00000KT 10SM CLR 12/M04 A3033 RMK AO2
KMBO 152115Z AUTO 00000KT 10SM CLR 12/M05 A3033 RMK AO2
KMBO 152055Z AUTO 00000KT 10SM CLR 12/M05 A3033 RMK AO2
KMBO 152035Z AUTO 10003KT 10SM CLR 12/M05 A3033 RMK AO2
KMBO 152015Z AUTO 20003KT 10SM CLR 12/M05 A3034 RMK AO2
KMBO 151955Z AUTO 22005KT 10SM CLR 11/M05 A3035 RMK AO2
KMBO 151935Z AUTO 23007KT 10SM CLR 12/M05 A3036 RMK AO2
KMBO 151915Z AUTO 20004KT 10SM CLR 11/M05 A3036 RMK AO2
KMBO 151855Z AUTO 21005KT 10SM CLR 11/M05 A3037 RMK AO2
KMBO 151835Z AUTO 18004KT 10SM CLR 10/M06 A3038 RMK AO2
KMBO 151815Z AUTO 19004KT 10SM CLR 10/M06 A3040 RMK AO2
KMBO 151755Z AUTO 27003KT 10SM CLR 10/M05 A3041 RMK AO2
KMBO 151735Z AUTO 20007KT 10SM CLR 09/M06 A3042 RMK AO2
KMBO 151715Z AUTO 19008KT 10SM CLR 09/M06 A3044 RMK AO2
KMBO 151655Z AUTO 19006KT 10SM CLR 08/M06 A3044 RMK AO2
KMBO 151635Z AUTO 23005KT 10SM CLR 08/M05 A3045 RMK AO2
KMBO 151615Z AUTO 20004KT 10SM CLR 07/M05 A3045 RMK AO2
KMBO 151555Z AUTO 18003KT 10SM CLR 05/M04 A3045 RMK AO2
KMBO 151535Z AUTO 00000KT 10SM CLR 04/M04 A3045 RMK AO2
KMBO 151515Z AUTO 18004KT 10SM CLR 02/M04 A3044 RMK AO2
KMBO 151455Z AUTO 18005KT 10SM CLR 01/M05 A3044 RMK AO2